createdAt,value
2022-11-29T00:01:37.255Z,6.40
2022-11-29T00:04:04.821Z,5.97
2022-11-29T00:06:34.040Z,6.30
2022-11-29T00:09:06.508Z,4.85
2022-11-29T00:11:55.276Z,5.40
2022-11-29T00:14:23.681Z,5.03
2022-11-29T00:16:53.245Z,5.28
2022-11-29T00:19:20.897Z,6.10
2022-11-29T00:21:47.870Z,5.28
2022-11-29T00:24:14.899Z,6.13
2022-11-29T00:26:42.129Z,6.25
2022-11-29T00:29:11.929Z,5.35
2022-11-29T00:31:39.932Z,6.07
2022-11-29T00:34:08.130Z,6.38
2022-11-29T00:36:35.677Z,7.55
2022-11-29T00:39:04.629Z,6.85
2022-11-29T00:41:32.118Z,7.45
2022-11-29T00:44:00.962Z,6.85
2022-11-29T00:46:30.047Z,7.93
2022-11-29T00:48:57.124Z,6.15
2022-11-29T00:51:24.240Z,8.48
2022-11-29T00:53:51.658Z,8.18
2022-11-29T00:56:18.673Z,6.32
2022-11-29T00:58:45.737Z,7.70
2022-11-29T01:01:13.906Z,8.15
2022-11-29T01:03:41.134Z,7.05
2022-11-29T01:06:11.378Z,8.35
2022-11-29T01:08:38.888Z,8.38
2022-11-29T01:11:08.168Z,8.45
2022-11-29T01:13:35.404Z,6.97
2022-11-29T01:16:03.385Z,7.30
2022-11-29T01:18:30.890Z,6.05
2022-11-29T01:21:07.363Z,7.10
2022-11-29T01:23:35.851Z,7.53
2022-11-29T01:26:09.313Z,7.00
2022-11-29T01:28:37.453Z,7.65
2022-11-29T01:31:08.432Z,6.45
2022-11-29T01:33:36.353Z,8.73
2022-11-29T01:36:05.573Z,7.57
2022-11-29T01:38:32.715Z,7.13
2022-11-29T01:41:09.179Z,7.85
2022-11-29T01:43:56.790Z,7.55
2022-11-29T01:46:24.242Z,8.52
2022-11-29T01:48:56.259Z,6.78
2022-11-29T01:51:25.038Z,6.82
2022-11-29T01:53:52.179Z,8.07
2022-11-29T01:56:19.309Z,6.00
2022-11-29T01:58:46.642Z,5.30
2022-11-29T02:01:14.654Z,6.38
2022-11-29T02:03:41.765Z,7.40
2022-11-29T02:06:09.344Z,5.97
2022-11-29T02:08:39.911Z,5.90
2022-11-29T02:11:06.980Z,7.20
2022-11-29T02:13:48.081Z,6.50
2022-11-29T02:16:27.060Z,5.22
2022-11-29T02:19:23.326Z,6.65
2022-11-29T02:22:02.970Z,6.25
2022-11-29T02:24:42.176Z,7.18
2022-11-29T02:27:21.596Z,6.50
2022-11-29T02:30:05.057Z,7.20
2022-11-29T02:35:26.833Z,5.60
2022-11-29T02:38:26.883Z,6.00
2022-11-29T02:41:06.029Z,7.00
2022-11-29T02:43:59.635Z,6.72
2022-11-29T02:46:26.637Z,6.68
2022-11-29T02:49:16.902Z,7.05
2022-11-29T02:52:01.046Z,3.75
2022-11-29T02:54:48.182Z,6.10
2022-11-29T02:57:33.111Z,4.93
2022-11-29T03:00:07.474Z,6.22
2022-11-29T03:02:56.018Z,6.00
2022-11-29T03:05:44.928Z,6.82
2022-11-29T03:08:32.316Z,7.00
2022-11-29T03:11:26.989Z,6.05
2022-11-29T03:14:15.680Z,7.65
2022-11-29T03:17:00.780Z,7.07
2022-11-29T03:20:03.913Z,4.80
2022-11-29T03:22:52.413Z,7.40
2022-11-29T03:25:29.345Z,6.53
2022-11-29T03:27:56.373Z,6.65
2022-11-29T03:30:23.677Z,7.32
2022-11-29T03:33:30.747Z,5.72
2022-11-29T03:36:21.885Z,7.50
2022-11-29T03:38:49.031Z,6.03
2022-11-29T03:41:24.940Z,6.30
2022-11-29T03:44:08.916Z,4.03
2022-11-29T03:46:57.557Z,7.00
2022-11-29T03:49:35.539Z,4.80
2022-11-29T03:52:17.887Z,7.07
2022-11-29T03:55:12.246Z,6.53
2022-11-29T03:57:51.232Z,7.15
2022-11-29T04:00:19.163Z,6.55
2022-11-29T04:02:58.364Z,8.18
2022-11-29T04:05:37.746Z,5.50
2022-11-29T04:08:35.008Z,7.35
2022-11-29T04:11:04.721Z,7.90
2022-11-29T04:14:16.764Z,6.22
2022-11-29T04:16:58.982Z,6.90
2022-11-29T04:19:57.806Z,7.18
2022-11-29T04:22:40.638Z,7.18
2022-11-29T04:25:38.824Z,7.13
2022-11-29T04:28:24.947Z,7.55
2022-11-29T04:31:03.942Z,7.53
2022-11-29T04:34:03.418Z,7.15
2022-11-29T04:36:57.353Z,6.57
2022-11-29T04:39:55.287Z,6.85
2022-11-29T04:43:04.104Z,4.30
2022-11-29T04:45:39.924Z,5.38
2022-11-29T04:48:42.929Z,6.72
2022-11-29T04:51:30.137Z,6.53
2022-11-29T04:54:22.523Z,6.30
2022-11-29T04:56:54.759Z,6.32
2022-11-29T04:59:43.503Z,7.15
2022-11-29T05:02:16.546Z,7.65
2022-11-29T05:04:55.842Z,7.57
2022-11-29T05:07:35.927Z,7.45
2022-11-29T05:10:18.108Z,7.40
2022-11-29T05:13:06.893Z,7.00
2022-11-29T05:15:59.839Z,7.00
2022-11-29T05:18:42.100Z,8.27
2022-11-29T05:21:15.324Z,8.45
2022-11-29T05:24:07.205Z,9.40
2022-11-29T05:27:03.050Z,7.68
2022-11-29T05:29:50.305Z,8.20
2022-11-29T05:32:36.440Z,9.43
2022-11-29T05:35:24.931Z,8.38
2022-11-29T05:37:57.244Z,8.55
2022-11-29T05:40:52.332Z,6.87
2022-11-29T05:43:41.175Z,8.45
2022-11-29T05:46:20.621Z,8.07
2022-11-29T05:49:09.659Z,9.00
2022-11-29T05:52:24.526Z,9.73
2022-11-29T05:55:22.819Z,9.13
2022-11-29T05:57:59.246Z,8.65
2022-11-29T06:00:43.538Z,10.43
2022-11-29T06:03:33.802Z,8.00
2022-11-29T06:06:10.670Z,6.00
2022-11-29T06:08:47.003Z,8.88
2022-11-29T06:11:42.356Z,11.40
2022-11-29T06:14:21.501Z,10.93
2022-11-29T06:16:57.727Z,8.75
2022-11-29T06:19:30.827Z,9.65
2022-11-29T06:22:22.581Z,10.98
2022-11-29T06:25:30.779Z,10.02
2022-11-29T06:28:44.206Z,9.88
2022-11-29T06:31:38.220Z,10.10
2022-11-29T06:34:44.649Z,7.72
2022-11-29T06:37:28.286Z,9.82
2022-11-29T06:39:55.821Z,10.43
2022-11-29T06:42:22.924Z,7.50
2022-11-29T06:44:50.279Z,9.50
2022-11-29T06:47:30.884Z,12.20
2022-11-29T06:50:13.606Z,9.63
2022-11-29T06:53:08.766Z,8.30
2022-11-29T06:56:03.917Z,9.63
2022-11-29T06:58:35.972Z,12.15
2022-11-29T07:01:22.574Z,8.82
2022-11-29T07:04:28.222Z,11.23
2022-11-29T07:07:00.987Z,9.02
2022-11-29T07:09:34.365Z,9.80
2022-11-29T07:12:01.741Z,10.25
2022-11-29T07:14:29.656Z,10.32
2022-11-29T07:17:41.732Z,10.75
2022-11-29T07:20:23.737Z,10.00
2022-11-29T07:23:06.943Z,8.95
2022-11-29T07:26:07.568Z,8.73
2022-11-29T07:28:37.633Z,8.27
2022-11-29T07:31:17.769Z,9.43
2022-11-29T07:33:51.078Z,8.65
2022-11-29T07:39:13.375Z,8.23
2022-11-29T07:42:00.734Z,7.28
2022-11-29T07:44:36.606Z,10.38
2022-11-29T07:47:03.753Z,8.25
2022-11-29T07:49:30.949Z,8.40
2022-11-29T07:52:15.960Z,8.00
2022-11-29T07:56:57.726Z,7.60
2022-11-29T08:05:19.078Z,8.52
2022-11-29T08:07:46.544Z,7.80
2022-11-29T08:12:20.519Z,8.93
2022-11-29T08:24:45.998Z,8.10
2022-11-29T08:36:14.532Z,7.00
2022-11-29T08:38:41.955Z,8.07
2022-11-29T08:41:11.697Z,8.23
2022-11-29T08:43:41.705Z,8.13
2022-11-29T08:46:11.386Z,8.73
2022-11-29T08:48:42.265Z,9.15
2022-11-29T08:51:11.734Z,9.65
2022-11-29T08:53:41.730Z,7.53
2022-11-29T08:56:49.572Z,6.55
2022-11-29T08:58:58.478Z,8.77
2022-11-29T09:01:25.582Z,7.97
2022-11-29T09:04:05.434Z,8.55
2022-11-29T09:06:37.650Z,7.70
2022-11-29T09:09:05.889Z,9.38
2022-11-29T09:11:34.641Z,8.55
2022-11-29T09:14:06.798Z,8.52
2022-11-29T09:16:38.351Z,8.07
2022-11-29T09:19:09.192Z,8.65
2022-11-29T09:21:36.945Z,7.13
2022-11-29T09:24:06.650Z,10.40
2022-11-29T09:26:37.002Z,10.30
2022-11-29T09:29:06.021Z,6.80
2022-11-29T09:31:34.593Z,8.88
2022-11-29T09:34:02.013Z,5.40
2022-11-29T09:36:30.549Z,8.82
2022-11-29T09:38:58.214Z,7.95
2022-11-29T09:41:53.925Z,9.35
2022-11-29T09:44:52.950Z,9.25
2022-11-29T09:47:46.095Z,9.70
2022-11-29T09:50:26.575Z,9.65
2022-11-29T09:53:21.955Z,9.05
2022-11-29T09:55:53.598Z,10.00
2022-11-29T09:58:26.305Z,11.25
2022-11-29T10:01:00.215Z,9.27
2022-11-29T10:03:34.361Z,11.02
2022-11-29T10:06:08.450Z,7.88
2022-11-29T10:09:08.500Z,8.93
2022-11-29T10:11:42.558Z,9.90
2022-11-29T10:14:25.244Z,10.45
2022-11-29T10:16:55.529Z,10.15
2022-11-29T10:19:34.932Z,9.13
2022-11-29T10:22:26.208Z,9.95
2022-11-29T10:24:59.280Z,11.10
2022-11-29T10:27:29.701Z,9.15
2022-11-29T10:30:03.631Z,11.00
2022-11-29T10:32:34.444Z,9.85
2022-11-29T10:35:01.803Z,11.43
2022-11-29T10:37:32.954Z,9.68
2022-11-29T10:40:04.560Z,11.68
2022-11-29T10:42:50.365Z,11.10
2022-11-29T10:45:28.472Z,8.52
2022-11-29T10:48:01.984Z,10.55
2022-11-29T10:50:37.255Z,11.23
2022-11-29T10:53:10.895Z,9.73
2022-11-29T10:55:53.793Z,10.23
2022-11-29T10:58:28.429Z,9.43
2022-11-29T11:01:10.934Z,10.70
2022-11-29T11:03:41.501Z,9.93
2022-11-29T11:06:13.382Z,9.93
2022-11-29T11:08:51.446Z,10.05
2022-11-29T11:11:33.059Z,10.50
2022-11-29T11:14:25.508Z,12.43
2022-11-29T11:16:52.886Z,10.20
2022-11-29T11:19:32.105Z,9.95
2022-11-29T11:22:04.271Z,10.95
2022-11-29T11:24:44.939Z,10.48
2022-11-29T11:27:12.359Z,11.90
2022-11-29T11:29:45.004Z,7.93
2022-11-29T11:32:18.332Z,10.25
2022-11-29T11:34:54.088Z,13.18
2022-11-29T11:37:25.485Z,12.82
2022-11-29T11:39:58.248Z,14.38
2022-11-29T11:42:43.900Z,13.48
2022-11-29T11:45:11.463Z,13.30
2022-11-29T11:48:00.432Z,10.15
2022-11-29T11:50:52.405Z,11.38
2022-11-29T11:53:24.955Z,13.57
2022-11-29T11:55:59.236Z,15.38
2022-11-29T11:58:41.657Z,10.60
2022-11-29T12:01:12.069Z,12.63
2022-11-29T12:03:58.325Z,14.90
2022-11-29T12:06:43.994Z,13.00
2022-11-29T12:09:19.618Z,12.00
2022-11-29T12:11:56.600Z,13.13
2022-11-29T12:14:44.223Z,13.10
2022-11-29T12:17:19.932Z,10.80
2022-11-29T12:19:58.041Z,12.60
2022-11-29T12:22:30.881Z,12.90
2022-11-29T12:25:07.736Z,11.18
2022-11-29T12:27:34.953Z,9.20
2022-11-29T12:30:02.244Z,12.05
2022-11-29T12:32:44.878Z,11.65
2022-11-29T12:36:06.720Z,12.32
2022-11-29T12:38:55.803Z,10.20
2022-11-29T12:41:27.734Z,9.40
2022-11-29T12:44:31.092Z,11.05
2022-11-29T12:47:34.500Z,9.98
2022-11-29T12:50:20.715Z,9.30
2022-11-29T12:53:12.338Z,10.55
2022-11-29T12:56:07.365Z,10.90
2022-11-29T12:58:46.108Z,9.60
2022-11-29T13:01:22.590Z,10.65
2022-11-29T13:04:17.424Z,8.40
2022-11-29T13:07:20.856Z,11.68
2022-11-29T13:10:18.196Z,12.05
2022-11-29T13:13:14.967Z,11.05
2022-11-29T13:15:51.331Z,8.38
2022-11-29T13:18:37.545Z,7.28
2022-11-29T13:21:13.462Z,7.28
2022-11-29T13:24:09.368Z,12.63
2022-11-29T13:26:42.193Z,15.03
2022-11-29T13:29:16.145Z,12.27
2022-11-29T13:31:45.886Z,10.00
2022-11-29T13:34:21.874Z,11.82
2022-11-29T13:37:03.809Z,14.53
2022-11-29T13:39:36.659Z,9.43
2022-11-29T13:42:22.144Z,12.63
2022-11-29T13:45:05.731Z,13.05
2022-11-29T13:50:04.511Z,12.57
2022-11-29T13:52:42.858Z,13.07
2022-11-29T13:55:13.044Z,7.80
2022-11-29T13:58:15.557Z,13.82
2022-11-29T14:00:44.847Z,14.05
2022-11-29T14:03:24.451Z,14.18
2022-11-29T14:06:02.417Z,15.82
2022-11-29T14:09:17.339Z,9.98
2022-11-29T14:11:53.437Z,16.80
2022-11-29T14:14:39.174Z,14.33
2022-11-29T14:17:27.020Z,10.10
2022-11-29T14:20:23.225Z,13.80
2022-11-29T14:23:16.863Z,10.50
2022-11-29T14:25:59.224Z,13.25
2022-11-29T14:28:40.289Z,12.57
2022-11-29T14:31:13.271Z,12.95
2022-11-29T14:33:48.553Z,12.03
2022-11-29T14:36:26.982Z,10.13
2022-11-29T14:39:24.465Z,12.80
2022-11-29T14:41:54.393Z,13.27
2022-11-29T14:44:33.248Z,12.48
2022-11-29T14:47:08.422Z,7.97
2022-11-29T14:49:44.741Z,14.95
2022-11-29T14:52:14.792Z,13.48
2022-11-29T14:54:57.132Z,12.43
2022-11-29T14:58:16.688Z,13.77
2022-11-29T15:00:56.413Z,11.93
2022-11-29T15:03:23.560Z,11.33
2022-11-29T15:06:13.220Z,13.43
2022-11-29T15:09:01.160Z,9.45
2022-11-29T15:11:39.211Z,12.23
2022-11-29T15:14:19.078Z,12.75
2022-11-29T15:16:58.470Z,13.32
2022-11-29T15:20:02.982Z,11.65
2022-11-29T15:22:48.273Z,10.38
2022-11-29T15:25:28.486Z,12.40
2022-11-29T15:27:59.964Z,5.15
2022-11-29T15:30:36.175Z,7.37
2022-11-29T15:33:06.265Z,9.18
2022-11-29T15:35:35.986Z,11.73
2022-11-29T15:38:03.378Z,6.53
2022-11-29T15:40:35.448Z,9.17
2022-11-29T15:43:24.058Z,12.33
2022-11-29T15:45:54.248Z,12.80
2022-11-29T15:48:25.788Z,7.88
2022-11-29T15:50:58.800Z,9.02
2022-11-29T15:53:41.004Z,11.68
2022-11-29T15:56:26.617Z,11.70
2022-11-29T15:59:01.221Z,6.77
2022-11-29T16:01:28.557Z,11.30
2022-11-29T16:03:58.319Z,12.15
2022-11-29T16:06:33.440Z,12.18
2022-11-29T16:09:02.155Z,10.67
2022-11-29T16:11:31.954Z,11.70
2022-11-29T16:14:25.200Z,11.10
2022-11-29T16:16:55.329Z,11.43
2022-11-29T16:19:28.471Z,9.70
2022-11-29T16:22:12.263Z,7.60
2022-11-29T16:25:03.000Z,5.05
2022-11-29T16:27:33.831Z,9.40
2022-11-29T16:30:05.372Z,11.95
2022-11-29T16:32:43.397Z,12.77
2022-11-29T16:35:21.226Z,12.63
2022-11-29T16:37:49.083Z,11.73
2022-11-29T16:40:47.565Z,12.73
2022-11-29T16:43:38.040Z,11.30
2022-11-29T16:46:20.263Z,9.20
2022-11-29T16:48:52.023Z,12.20
2022-11-29T16:51:26.046Z,11.23
2022-11-29T16:53:54.563Z,9.07
2022-11-29T16:56:29.189Z,11.20
2022-11-29T16:59:25.438Z,10.17
2022-11-29T17:01:51.349Z,9.20
2022-11-29T17:04:23.763Z,9.17
2022-11-29T17:06:53.957Z,11.15
2022-11-29T17:09:27.279Z,11.33
2022-11-29T17:14:23.496Z,6.00
2022-11-29T17:16:52.060Z,8.38
2022-11-29T17:19:24.594Z,7.63
2022-11-29T17:21:53.124Z,13.13
2022-11-29T17:24:26.190Z,10.50
2022-11-29T17:29:23.818Z,8.40
2022-11-29T17:31:53.330Z,9.53
2022-11-29T17:34:20.972Z,10.37
2022-11-29T17:36:48.408Z,11.10
2022-11-29T17:39:21.718Z,8.43
2022-11-29T17:41:48.944Z,9.18
2022-11-29T17:44:16.213Z,10.50
2022-11-29T17:46:43.520Z,8.57
2022-11-29T17:49:12.508Z,9.90
2022-11-29T17:51:56.445Z,11.30
2022-11-29T17:54:23.817Z,7.82
2022-11-29T17:56:54.162Z,9.77
2022-11-29T17:59:21.385Z,9.80
2022-11-29T18:01:48.746Z,9.45
2022-11-29T18:04:16.099Z,11.03
2022-11-29T18:06:43.815Z,11.13
2022-11-29T18:09:11.755Z,11.20
2022-11-29T18:11:48.721Z,12.30
2022-11-29T18:14:23.092Z,10.95
2022-11-29T18:16:50.416Z,11.98
2022-11-29T18:19:20.994Z,12.93
2022-11-29T18:21:49.232Z,8.23
2022-11-29T18:24:19.830Z,14.60
2022-11-29T18:26:51.222Z,10.90
2022-11-29T18:29:18.537Z,14.83
2022-11-29T18:31:48.343Z,12.77
2022-11-29T18:34:18.514Z,8.55
2022-11-29T18:36:47.849Z,14.63
2022-11-29T18:39:17.384Z,12.43
2022-11-29T18:41:49.738Z,12.10
2022-11-29T18:44:19.601Z,11.33
2022-11-29T18:46:47.093Z,9.13
2022-11-29T18:49:18.207Z,8.27
2022-11-29T18:51:46.811Z,11.77
2022-11-29T18:54:15.279Z,8.00
2022-11-29T18:56:43.701Z,10.13
2022-11-29T18:59:17.452Z,7.93
2022-11-29T19:01:47.073Z,9.40
2022-11-29T19:04:16.615Z,9.82
2022-11-29T19:06:44.270Z,8.93
2022-11-29T19:09:14.939Z,10.57
2022-11-29T19:11:42.850Z,9.27
2022-11-29T19:14:11.978Z,10.40
2022-11-29T19:16:44.377Z,9.27
2022-11-29T19:19:12.250Z,9.20
2022-11-29T19:21:40.516Z,8.57
2022-11-29T19:24:15.560Z,9.40
2022-11-29T19:26:47.433Z,7.30
2022-11-29T19:29:22.217Z,10.13
2022-11-29T19:31:50.561Z,9.05
2022-11-29T19:34:17.875Z,5.43
2022-11-29T19:36:45.528Z,10.30
2022-11-29T19:39:14.423Z,7.57
2022-11-29T19:41:44.273Z,9.02
2022-11-29T19:44:11.577Z,6.72
2022-11-29T19:46:44.649Z,8.63
2022-11-29T19:49:12.499Z,9.52
2022-11-29T19:51:39.690Z,9.77
2022-11-29T19:54:09.244Z,10.87
2022-11-29T19:56:36.590Z,10.87
2022-11-29T19:59:04.039Z,9.27
2022-11-29T20:01:39.810Z,11.00
2022-11-29T20:04:08.221Z,10.27
2022-11-29T20:06:35.378Z,8.93
2022-11-29T20:09:03.048Z,10.07
2022-11-29T20:11:30.505Z,8.53
2022-11-29T20:13:59.792Z,10.50
2022-11-29T20:16:28.309Z,8.93
2022-11-29T20:18:56.265Z,7.13
2022-11-29T20:21:31.432Z,11.17
2022-11-29T20:24:06.539Z,8.90
2022-11-29T20:26:36.603Z,11.23
2022-11-29T20:29:05.442Z,10.87
2022-11-29T20:31:34.774Z,11.67
2022-11-29T20:34:02.890Z,10.18
2022-11-29T20:36:54.479Z,10.30
2022-11-29T20:39:47.213Z,5.90
2022-11-29T20:42:39.931Z,6.38
2022-11-29T20:45:11.026Z,13.33
2022-11-29T20:47:53.297Z,10.20
2022-11-29T20:50:24.246Z,9.43
2022-11-29T20:52:57.663Z,10.45
2022-11-29T20:55:24.916Z,11.23
2022-11-29T20:57:52.494Z,7.30
2022-11-29T21:00:20.172Z,10.75
2022-11-29T21:02:50.319Z,9.53
2022-11-29T21:05:18.791Z,10.40
2022-11-29T21:07:46.881Z,10.47
2022-11-29T21:10:17.379Z,10.47
2022-11-29T21:12:45.858Z,10.30
2022-11-29T21:15:14.833Z,10.57
2022-11-29T21:17:43.185Z,8.63
2022-11-29T21:20:29.231Z,10.97
2022-11-29T21:23:25.985Z,9.57
2022-11-29T21:26:20.977Z,9.77
2022-11-29T21:29:07.422Z,11.20
2022-11-29T21:31:34.985Z,10.57
2022-11-29T21:34:02.626Z,12.07
2022-11-29T21:36:32.882Z,9.77
2022-11-29T21:39:04.900Z,8.27
2022-11-29T21:41:35.382Z,10.77
2022-11-29T21:44:07.540Z,10.33
2022-11-29T21:46:35.464Z,8.55
2022-11-29T21:49:02.622Z,11.03
2022-11-29T21:51:29.763Z,9.27
2022-11-29T21:53:56.784Z,11.20
2022-11-29T21:56:23.962Z,12.40
2022-11-29T21:58:53.751Z,10.47
2022-11-29T22:01:21.415Z,12.87
2022-11-29T22:03:48.510Z,11.43
2022-11-29T22:06:21.055Z,11.07
2022-11-29T22:08:51.513Z,11.67
2022-11-29T22:11:31.098Z,11.20
2022-11-29T22:14:16.108Z,12.33
2022-11-29T22:16:52.293Z,11.50
2022-11-29T22:19:37.636Z,11.97
2022-11-29T22:22:07.091Z,10.90
2022-11-29T22:24:36.008Z,12.40
2022-11-29T22:27:05.089Z,11.57
2022-11-29T22:29:32.205Z,11.07
2022-11-29T22:31:59.639Z,10.83
2022-11-29T22:34:27.568Z,10.53
2022-11-29T22:36:55.049Z,10.33
2022-11-29T22:39:24.283Z,10.50
2022-11-29T22:41:54.733Z,10.63
2022-11-29T22:44:23.957Z,11.17
2022-11-29T22:46:51.364Z,10.27
2022-11-29T22:49:18.631Z,11.93
2022-11-29T22:51:45.870Z,10.13
2022-11-29T22:54:16.672Z,8.27
2022-11-29T22:56:45.297Z,10.33
2022-11-29T22:59:13.181Z,9.93
2022-11-29T23:01:41.228Z,9.97
2022-11-29T23:04:10.840Z,10.13
2022-11-29T23:06:42.265Z,8.80
2022-11-29T23:09:15.512Z,9.40
2022-11-29T23:14:11.023Z,4.97
2022-11-29T23:16:38.225Z,11.10
2022-11-29T23:19:05.292Z,10.40
2022-11-29T23:21:38.734Z,11.43
2022-11-29T23:24:06.335Z,11.23
2022-11-29T23:26:40.759Z,12.27
2022-11-29T23:29:10.614Z,10.77
2022-11-29T23:31:41.223Z,12.65
2022-11-29T23:34:08.475Z,11.13
2022-11-29T23:36:47.020Z,9.53
2022-11-29T23:39:18.289Z,11.45
2022-11-29T23:41:45.310Z,10.13
2022-11-29T23:44:12.544Z,10.53
2022-11-29T23:46:39.540Z,11.60
2022-11-29T23:49:06.578Z,11.03
2022-11-29T23:51:33.619Z,10.77
2022-11-29T23:54:00.858Z,10.97
2022-11-29T23:56:27.891Z,10.23
2022-11-29T23:59:07.314Z,10.30
